createdAt,value
2022-10-03T00:00:53.812Z,9.711870
2022-10-03T00:01:53.839Z,9.711895
2022-10-03T00:02:53.821Z,9.711820
2022-10-03T00:03:53.776Z,9.711782
2022-10-03T00:04:53.767Z,9.711766
2022-10-03T00:05:53.756Z,9.711779
2022-10-03T00:06:53.741Z,9.711701
2022-10-03T00:07:53.736Z,9.711643
2022-10-03T00:08:53.724Z,9.711647
2022-10-03T00:09:53.731Z,9.711638
2022-10-03T00:10:53.715Z,9.711618
2022-10-03T00:11:53.703Z,9.711622
2022-10-03T00:12:53.695Z,9.711702
2022-10-03T00:13:53.686Z,9.711666
2022-10-03T00:14:53.693Z,9.711680
2022-10-03T00:15:53.715Z,9.711679
2022-10-03T00:16:53.666Z,9.711719
2022-10-03T00:17:53.652Z,9.711653
2022-10-03T00:18:53.643Z,9.711649
2022-10-03T00:19:53.651Z,9.711642
2022-10-03T00:20:54.346Z,9.711620
2022-10-03T00:21:53.630Z,9.711633
2022-10-03T00:22:54.351Z,9.711640
2022-10-03T00:23:53.610Z,9.711667
2022-10-03T00:24:53.599Z,9.711655
2022-10-03T00:25:53.604Z,9.711650
2022-10-03T00:26:53.584Z,9.711627
2022-10-03T00:27:53.652Z,9.711660
2022-10-03T00:28:53.572Z,9.711665
2022-10-03T00:33:43.202Z,9.711550
2022-10-03T00:34:43.194Z,9.711635
2022-10-03T00:35:43.188Z,9.711620
2022-10-03T00:36:43.173Z,9.711673
2022-10-03T00:37:43.168Z,9.711714
2022-10-03T00:38:43.174Z,9.711707
2022-10-03T00:39:43.147Z,9.711648
2022-10-03T00:40:43.136Z,9.711565
2022-10-03T00:41:43.141Z,9.711614
2022-10-03T00:42:43.121Z,9.711637
2022-10-03T00:43:43.128Z,9.711627
2022-10-03T00:44:43.115Z,9.711607
2022-10-03T00:45:43.101Z,9.711611
2022-10-03T00:46:43.182Z,9.711592
2022-10-03T00:47:43.090Z,9.711606
2022-10-03T00:48:43.090Z,9.711611
2022-10-03T00:49:43.074Z,9.711670
2022-10-03T00:50:43.063Z,9.711696
2022-10-03T00:51:43.057Z,9.711693
2022-10-03T00:52:43.047Z,9.711763
2022-10-03T00:53:43.037Z,9.711696
2022-10-03T00:54:43.027Z,9.711630
2022-10-03T00:55:43.020Z,9.711596
2022-10-03T00:56:43.063Z,9.711641
2022-10-03T00:57:43.021Z,9.711637
2022-10-03T00:58:42.998Z,9.711596
2022-10-03T00:59:46.222Z,9.711609
2022-10-03T01:00:45.045Z,9.711570
2022-10-03T01:01:43.360Z,9.711571
2022-10-03T01:02:42.979Z,9.711683
2022-10-03T01:03:42.967Z,9.711599
2022-10-03T01:04:42.952Z,9.711603
2022-10-03T01:05:42.948Z,9.711661
2022-10-03T01:06:42.952Z,9.711619
2022-10-03T01:07:42.923Z,9.711691
2022-10-03T01:08:42.924Z,9.711635
2022-10-03T01:09:42.924Z,9.711639
2022-10-03T01:10:42.914Z,9.711755
2022-10-03T01:11:43.211Z,9.711779
2022-10-03T01:12:42.890Z,9.711848
2022-10-03T01:13:42.986Z,9.711759
2022-10-03T01:14:42.881Z,9.711736
2022-10-03T01:15:42.905Z,9.711734
2022-10-03T01:16:42.871Z,9.711709
2022-10-03T01:17:42.848Z,9.711868
2022-10-03T01:18:42.836Z,9.711636
2022-10-03T01:19:42.830Z,9.711747
2022-10-03T01:20:42.824Z,9.711728
2022-10-03T01:21:42.880Z,9.711811
2022-10-03T01:22:42.813Z,9.712020
2022-10-03T01:23:42.812Z,9.712014
2022-10-03T01:24:42.790Z,9.712128
2022-10-03T01:25:42.786Z,9.711935
2022-10-03T01:26:42.777Z,9.711844
2022-10-03T01:27:42.767Z,9.711756
2022-10-03T01:28:42.777Z,9.711764
2022-10-03T01:29:42.761Z,9.711806
2022-10-03T01:30:42.753Z,9.711660
2022-10-03T01:31:43.242Z,9.711865
2022-10-03T01:32:42.754Z,9.712083
2022-10-03T01:33:42.723Z,9.711762
2022-10-03T01:34:42.718Z,9.711740
2022-10-03T01:35:42.709Z,9.711821
2022-10-03T01:36:43.483Z,9.711903
2022-10-03T01:37:42.703Z,9.712147
2022-10-03T01:38:42.694Z,9.711727
2022-10-03T01:39:42.676Z,9.711782
2022-10-03T01:40:42.708Z,9.711742
2022-10-03T01:41:43.006Z,9.711887
2022-10-03T01:42:42.661Z,9.711821
2022-10-03T01:43:42.647Z,9.711762
2022-10-03T01:44:42.632Z,9.711605
2022-10-03T01:45:42.644Z,9.711732
2022-10-03T01:46:42.666Z,9.711655
2022-10-03T01:47:42.613Z,9.711831
2022-10-03T01:48:42.617Z,9.711822
2022-10-03T01:49:42.598Z,9.711817
2022-10-03T01:50:43.489Z,9.711892
2022-10-03T01:51:42.660Z,9.711866
2022-10-03T01:52:43.571Z,9.711959
2022-10-03T01:53:43.444Z,9.711852
2022-10-03T01:54:42.551Z,9.711843
2022-10-03T01:55:43.067Z,9.712023
2022-10-03T01:56:42.541Z,9.711949
2022-10-03T01:57:42.534Z,9.711629
2022-10-03T01:58:42.526Z,9.711564
2022-10-03T01:59:42.531Z,9.711857
2022-10-03T02:00:42.571Z,9.712070
2022-10-03T02:01:43.471Z,9.712216
2022-10-03T02:02:44.027Z,9.711888
2022-10-03T02:03:42.492Z,9.711695
2022-10-03T02:04:42.554Z,9.711455
2022-10-03T02:05:42.473Z,9.711275
2022-10-03T02:06:42.471Z,9.711095
2022-10-03T02:07:42.462Z,9.710995
2022-10-03T02:08:42.457Z,9.710831
2022-10-03T02:09:42.440Z,9.711047
2022-10-03T02:10:42.438Z,9.711333
2022-10-03T02:11:42.697Z,9.711249
2022-10-03T02:12:42.408Z,9.711392
2022-10-03T02:13:43.408Z,9.711552
2022-10-03T02:14:42.398Z,9.711694
2022-10-03T02:15:42.414Z,9.711634
2022-10-03T02:16:42.414Z,9.711313
2022-10-03T02:17:42.376Z,9.710911
2022-10-03T02:18:42.405Z,9.710946
2022-10-03T02:19:42.356Z,9.711085
2022-10-03T02:20:42.399Z,9.711669
2022-10-03T02:21:42.376Z,9.711552
2022-10-03T02:22:42.356Z,9.711629
2022-10-03T02:23:42.330Z,9.711806
2022-10-03T02:24:42.323Z,9.711734
2022-10-03T02:25:42.323Z,9.711764
2022-10-03T02:26:42.302Z,9.711673
2022-10-03T02:27:42.337Z,9.711651
2022-10-03T02:28:42.287Z,9.711690
2022-10-03T02:29:42.292Z,9.711726
2022-10-03T02:30:42.280Z,9.711677
2022-10-03T02:31:42.767Z,9.711476
2022-10-03T02:32:42.265Z,9.711407
2022-10-03T02:33:42.252Z,9.711613
2022-10-03T02:34:42.253Z,9.711563
2022-10-03T02:35:42.245Z,9.711448
2022-10-03T02:36:42.246Z,9.711241
2022-10-03T02:37:42.223Z,9.711296
2022-10-03T02:38:42.217Z,9.710685
2022-10-03T02:39:42.211Z,9.710639
2022-10-03T02:40:42.219Z,9.710874
2022-10-03T02:41:42.534Z,9.711066
2022-10-03T02:42:42.213Z,9.711229
2022-10-03T02:43:42.220Z,9.711073
2022-10-03T02:44:42.183Z,9.711349
2022-10-03T02:45:42.207Z,9.711233
2022-10-03T02:46:42.150Z,9.711707
2022-10-03T02:47:42.154Z,9.711500
2022-10-03T02:48:42.134Z,9.711007
2022-10-03T02:49:42.127Z,9.711823
2022-10-03T02:50:42.120Z,9.712320
2022-10-03T02:51:42.501Z,9.711995
2022-10-03T02:52:42.111Z,9.711931
2022-10-03T02:53:42.135Z,9.712099
2022-10-03T02:54:42.088Z,9.711503
2022-10-03T02:55:42.087Z,9.711671
2022-10-03T02:56:42.073Z,9.711698
2022-10-03T02:57:42.067Z,9.711719
2022-10-03T02:58:42.082Z,9.711338
2022-10-03T02:59:42.056Z,9.711193
2022-10-03T03:00:42.095Z,9.711061
2022-10-03T03:01:42.483Z,9.711335
2022-10-03T03:02:42.023Z,9.711671
2022-10-03T03:03:42.028Z,9.711678
2022-10-03T03:04:42.050Z,9.711627
2022-10-03T03:05:42.036Z,9.711679
2022-10-03T03:06:41.991Z,9.711784
2022-10-03T03:07:41.984Z,9.711756
2022-10-03T03:08:41.991Z,9.711699
2022-10-03T03:09:41.973Z,9.711751
2022-10-03T03:10:41.976Z,9.711741
2022-10-03T03:11:42.493Z,9.711780
2022-10-03T03:12:41.949Z,9.711797
2022-10-03T03:13:42.014Z,9.711807
2022-10-03T03:14:41.965Z,9.711812
2022-10-03T03:15:41.924Z,9.711756
2022-10-03T03:16:41.968Z,9.711763
2022-10-03T03:17:41.912Z,9.711742
2022-10-03T03:18:41.891Z,9.711742
2022-10-03T03:19:41.907Z,9.711752
2022-10-03T03:20:41.881Z,9.711730
2022-10-03T03:21:42.450Z,9.711734
2022-10-03T03:22:41.863Z,9.711729
2022-10-03T03:23:41.859Z,9.711777
2022-10-03T03:24:41.866Z,9.711848
2022-10-03T03:25:41.840Z,9.711779
2022-10-03T03:26:41.830Z,9.711783
2022-10-03T03:27:41.822Z,9.711719
2022-10-03T03:28:41.826Z,9.711708
2022-10-03T03:29:42.499Z,9.711731
2022-10-03T03:30:41.816Z,9.711701
2022-10-03T03:31:43.281Z,9.711663
2022-10-03T03:32:41.782Z,9.711659
2022-10-03T03:33:41.778Z,9.711685
2022-10-03T03:34:41.790Z,9.711640
2022-10-03T03:35:41.756Z,9.711610
2022-10-03T03:36:41.764Z,9.711604
2022-10-03T03:37:41.771Z,9.711624
2022-10-03T03:38:41.729Z,9.711574
2022-10-03T03:39:41.727Z,9.711618
2022-10-03T03:40:41.714Z,9.711610
2022-10-03T03:41:42.189Z,9.711602
2022-10-03T03:42:41.703Z,9.711542
2022-10-03T03:43:41.691Z,9.711604
2022-10-03T03:44:41.682Z,9.711589
2022-10-03T03:45:41.731Z,9.711614
2022-10-03T03:46:41.673Z,9.711636
2022-10-03T03:47:41.667Z,9.711571
2022-10-03T03:48:41.647Z,9.711548
2022-10-03T03:49:41.654Z,9.711624
2022-10-03T03:50:41.671Z,9.711575
2022-10-03T03:51:41.909Z,9.711651
2022-10-03T03:52:41.625Z,9.711717
2022-10-03T03:53:41.615Z,9.711708
2022-10-03T03:54:41.615Z,9.711512
2022-10-03T03:55:41.596Z,9.711592
2022-10-03T03:56:41.594Z,9.711374
2022-10-03T03:57:41.580Z,9.711250
2022-10-03T03:58:41.573Z,9.711245
2022-10-03T03:59:41.590Z,9.711434
2022-10-03T04:00:41.588Z,9.711471
2022-10-03T04:01:42.041Z,9.711691
2022-10-03T04:02:41.542Z,9.711589
2022-10-03T04:03:41.525Z,9.711486
2022-10-03T04:04:41.545Z,9.711240
2022-10-03T04:05:41.510Z,9.711365
2022-10-03T04:06:41.504Z,9.711352
2022-10-03T04:07:41.496Z,9.711561
2022-10-03T04:08:41.490Z,9.711505
2022-10-03T04:09:41.489Z,9.711864
2022-10-03T04:10:41.476Z,9.712201
2022-10-03T04:11:41.991Z,9.711712
2022-10-03T04:12:41.456Z,9.711596
2022-10-03T04:13:41.449Z,9.711532
2022-10-03T04:14:41.481Z,9.711611
2022-10-03T04:15:41.441Z,9.711530
2022-10-03T04:16:41.475Z,9.711662
2022-10-03T04:17:41.429Z,9.711598
2022-10-03T04:18:41.451Z,9.711658
2022-10-03T04:19:41.404Z,9.711600
2022-10-03T04:20:41.409Z,9.711698
2022-10-03T04:21:41.926Z,9.711622
2022-10-03T04:22:41.421Z,9.711649
2022-10-03T04:23:41.376Z,9.711617
2022-10-03T04:24:41.419Z,9.711630
2022-10-03T04:25:41.398Z,9.711625
2022-10-03T04:26:41.361Z,9.711684
2022-10-03T04:27:41.341Z,9.711640
2022-10-03T04:28:41.333Z,9.711720
2022-10-03T04:29:41.356Z,9.711673
2022-10-03T04:30:41.329Z,9.711632
2022-10-03T04:31:41.671Z,9.711531
2022-10-03T04:32:41.316Z,9.711563
2022-10-03T04:33:41.297Z,9.711605
2022-10-03T04:34:41.291Z,9.711685
2022-10-03T04:35:41.273Z,9.711637
2022-10-03T04:36:41.271Z,9.711619
2022-10-03T04:37:41.258Z,9.711703
2022-10-03T04:38:41.265Z,9.711720
2022-10-03T04:39:41.248Z,9.711694
2022-10-03T04:40:41.240Z,9.711685
2022-10-03T04:41:43.182Z,9.711676
2022-10-03T04:42:42.215Z,9.711694
2022-10-03T04:43:41.210Z,9.711687
2022-10-03T04:44:41.193Z,9.711710
2022-10-03T04:45:42.277Z,9.711664
2022-10-03T04:46:41.199Z,9.711701
2022-10-03T04:47:41.194Z,9.711685
2022-10-03T04:48:41.615Z,9.711685
2022-10-03T04:49:41.170Z,9.711702
2022-10-03T04:50:41.156Z,9.711690
2022-10-03T04:51:41.541Z,9.711684
2022-10-03T04:52:41.187Z,9.711692
2022-10-03T04:53:41.139Z,9.711659
2022-10-03T04:54:41.133Z,9.711657
2022-10-03T04:55:41.154Z,9.711668
2022-10-03T04:56:41.110Z,9.711664
2022-10-03T04:57:41.115Z,9.711609
2022-10-03T04:58:41.094Z,9.711581
2022-10-03T04:59:42.022Z,9.711607
2022-10-03T05:00:41.094Z,9.711679
2022-10-03T05:01:41.466Z,9.711678
2022-10-03T05:02:41.062Z,9.711658
2022-10-03T05:03:41.062Z,9.711630
2022-10-03T05:04:41.047Z,9.711542
2022-10-03T05:05:41.080Z,9.711588
2022-10-03T05:06:41.029Z,9.711740
2022-10-03T05:07:41.025Z,9.711845
2022-10-03T05:08:41.017Z,9.711858
2022-10-03T05:09:41.616Z,9.711932
2022-10-03T05:10:41.004Z,9.712144
2022-10-03T05:11:41.194Z,9.712118
2022-10-03T05:12:40.975Z,9.711679
2022-10-03T05:13:40.992Z,9.711760
2022-10-03T05:14:40.961Z,9.711836
2022-10-03T05:15:40.960Z,9.711880
2022-10-03T05:16:41.006Z,9.711885
2022-10-03T05:17:40.945Z,9.711829
2022-10-03T05:18:40.937Z,9.711849
2022-10-03T05:19:40.925Z,9.711826
2022-10-03T05:20:40.930Z,9.711620
2022-10-03T05:21:41.352Z,9.711591
2022-10-03T05:22:40.904Z,9.711785
2022-10-03T05:23:40.909Z,9.711708
2022-10-03T05:24:40.888Z,9.711521
2022-10-03T05:25:40.883Z,9.711463
2022-10-03T05:26:45.021Z,9.711596
2022-10-03T05:27:42.862Z,9.711540
2022-10-03T05:28:40.872Z,9.711544
2022-10-03T05:29:40.841Z,9.711888
2022-10-03T05:30:40.836Z,9.711883
2022-10-03T05:31:41.315Z,9.711740
2022-10-03T05:32:40.827Z,9.711644
2022-10-03T05:33:40.815Z,9.711634
2022-10-03T05:34:40.803Z,9.711606
2022-10-03T05:35:40.795Z,9.711584
2022-10-03T05:36:40.786Z,9.711584
2022-10-03T05:37:40.785Z,9.711584
2022-10-03T05:38:40.768Z,9.711571
2022-10-03T05:39:40.762Z,9.711632
2022-10-03T05:40:40.758Z,9.711650
2022-10-03T05:41:40.989Z,9.711609
2022-10-03T05:42:40.733Z,9.711565
2022-10-03T05:43:40.756Z,9.711559
2022-10-03T05:44:40.725Z,9.711599
2022-10-03T05:45:40.781Z,9.711616
2022-10-03T05:46:40.703Z,9.711653
2022-10-03T05:47:40.696Z,9.711596
2022-10-03T05:48:40.714Z,9.711542
2022-10-03T05:49:40.678Z,9.711653
2022-10-03T05:50:40.689Z,9.711585
2022-10-03T05:51:41.295Z,9.711555
2022-10-03T05:52:40.651Z,9.711596
2022-10-03T05:53:40.669Z,9.711637
2022-10-03T05:54:40.639Z,9.711656
2022-10-03T05:55:40.628Z,9.711712
2022-10-03T05:56:41.237Z,9.711731
2022-10-03T05:57:41.620Z,9.711706
2022-10-03T05:58:40.613Z,9.711688
2022-10-03T05:59:40.606Z,9.711627
2022-10-03T06:00:40.592Z,9.711605
2022-10-03T06:01:41.138Z,9.711682
2022-10-03T06:02:40.770Z,9.711681
2022-10-03T06:03:40.588Z,9.711722
2022-10-03T06:04:40.560Z,9.711659
2022-10-03T06:05:40.548Z,9.711682
2022-10-03T06:06:40.552Z,9.711580
2022-10-03T06:07:40.534Z,9.711648
2022-10-03T06:08:40.581Z,9.711716
2022-10-03T06:09:40.521Z,9.711598
2022-10-03T06:10:40.529Z,9.711545
2022-10-03T06:11:41.077Z,9.711627
2022-10-03T06:12:40.511Z,9.711573
2022-10-03T06:13:40.524Z,9.711532
2022-10-03T06:14:40.493Z,9.711506
2022-10-03T06:15:40.545Z,9.711497
2022-10-03T06:16:40.464Z,9.711504
2022-10-03T06:17:43.107Z,9.711448
2022-10-03T06:18:41.453Z,9.711538
2022-10-03T06:19:40.451Z,9.711514
2022-10-03T06:20:40.439Z,9.711506
2022-10-03T06:21:40.968Z,9.711477
2022-10-03T06:22:40.422Z,9.711469
2022-10-03T06:23:40.414Z,9.711480
2022-10-03T06:24:40.407Z,9.711342
2022-10-03T06:25:40.403Z,9.711441
2022-10-03T06:26:40.424Z,9.711507
2022-10-03T06:27:40.429Z,9.711569
2022-10-03T06:28:40.374Z,9.711516
2022-10-03T06:29:40.363Z,9.711578
2022-10-03T06:30:40.438Z,9.711534
2022-10-03T06:31:40.662Z,9.711520
2022-10-03T06:32:40.348Z,9.711499
2022-10-03T06:33:40.333Z,9.711527
2022-10-03T06:34:40.339Z,9.711592
2022-10-03T06:35:40.322Z,9.711529
2022-10-03T06:36:40.326Z,9.711547
2022-10-03T06:37:40.309Z,9.711588
2022-10-03T06:38:40.290Z,9.711510
2022-10-03T06:39:40.290Z,9.711519
2022-10-03T06:40:40.273Z,9.711500
2022-10-03T06:41:40.682Z,9.711537
2022-10-03T06:42:40.271Z,9.711585
2022-10-03T06:43:41.268Z,9.711544
2022-10-03T06:44:40.238Z,9.711598
2022-10-03T06:45:40.238Z,9.711535
2022-10-03T06:46:40.295Z,9.711505
2022-10-03T06:47:40.218Z,9.711482
2022-10-03T06:48:40.207Z,9.711483
2022-10-03T06:49:40.638Z,9.711521
2022-10-03T06:50:40.203Z,9.711634
2022-10-03T06:51:40.648Z,9.711736
2022-10-03T06:52:40.179Z,9.711661
2022-10-03T06:53:40.197Z,9.711611
2022-10-03T06:54:40.170Z,9.711709
2022-10-03T06:55:40.173Z,9.711648
2022-10-03T06:56:41.209Z,9.711747
2022-10-03T06:57:40.137Z,9.711762
2022-10-03T06:58:40.128Z,9.711638
2022-10-03T06:59:40.125Z,9.711585
2022-10-03T07:00:40.115Z,9.711624
2022-10-03T07:01:40.423Z,9.711603
2022-10-03T07:02:40.117Z,9.711599
2022-10-03T07:03:40.105Z,9.711539
2022-10-03T07:04:40.095Z,9.711705
2022-10-03T07:05:41.283Z,9.711757
2022-10-03T07:06:41.063Z,9.711626
2022-10-03T07:07:40.077Z,9.711666
2022-10-03T07:08:40.061Z,9.711726
2022-10-03T07:09:40.039Z,9.711765
2022-10-03T07:10:40.037Z,9.711728
2022-10-03T07:11:40.421Z,9.711761
2022-10-03T07:12:40.023Z,9.711687
2022-10-03T07:13:40.003Z,9.711671
2022-10-03T07:14:40.030Z,9.711660
2022-10-03T07:16:08.402Z,9.711494
2022-10-03T07:16:42.014Z,9.711619
2022-10-03T07:17:39.971Z,9.711584
2022-10-03T07:18:39.967Z,9.711753
2022-10-03T07:19:39.984Z,9.711773
2022-10-03T07:20:39.964Z,9.711857
2022-10-03T07:21:40.402Z,9.711819
2022-10-03T07:22:39.992Z,9.711840
2022-10-03T07:23:39.938Z,9.711930
2022-10-03T07:24:39.920Z,9.711902
2022-10-03T07:25:39.918Z,9.711690
2022-10-03T07:26:39.916Z,9.711888
2022-10-03T07:27:39.895Z,9.711888
2022-10-03T07:28:40.050Z,9.711996
2022-10-03T07:29:39.888Z,9.712069
2022-10-03T07:30:39.875Z,9.712049
2022-10-03T07:31:40.191Z,9.711782
2022-10-03T07:32:39.857Z,9.711839
2022-10-03T07:33:39.860Z,9.711791
2022-10-03T07:34:39.845Z,9.711919
2022-10-03T07:35:39.835Z,9.711761
2022-10-03T07:36:39.841Z,9.711870
2022-10-03T07:37:39.839Z,9.711919
2022-10-03T07:38:39.821Z,9.711934
2022-10-03T07:39:39.802Z,9.711751
2022-10-03T07:40:40.561Z,9.711663
2022-10-03T07:41:40.112Z,9.711632
2022-10-03T07:42:43.522Z,9.711284
2022-10-03T07:43:42.057Z,9.711566
2022-10-03T07:44:39.758Z,9.711405
2022-10-03T07:45:39.754Z,9.711535
2022-10-03T07:46:39.790Z,9.711653
2022-10-03T07:47:39.745Z,9.711722
2022-10-03T07:48:39.725Z,9.711616
2022-10-03T07:49:39.731Z,9.711531
2022-10-03T07:50:39.715Z,9.711739
2022-10-03T07:51:40.138Z,9.711570
2022-10-03T07:52:39.716Z,9.711925
2022-10-03T07:53:39.699Z,9.711933
2022-10-03T07:54:39.708Z,9.711648
2022-10-03T07:55:39.684Z,9.711514
2022-10-03T07:56:39.663Z,9.711708
2022-10-03T07:57:39.683Z,9.711784
2022-10-03T07:58:39.656Z,9.711460
2022-10-03T07:59:39.657Z,9.711429
2022-10-03T08:00:40.833Z,9.711718
2022-10-03T08:01:41.943Z,9.711515
2022-10-03T08:02:39.655Z,9.711776
2022-10-03T08:03:40.596Z,9.711746
2022-10-03T08:04:39.602Z,9.711722
2022-10-03T08:05:39.593Z,9.711714
2022-10-03T08:06:39.599Z,9.711708
2022-10-03T08:07:39.573Z,9.711751
2022-10-03T08:08:39.569Z,9.711722
2022-10-03T08:09:39.580Z,9.711744
2022-10-03T08:10:40.799Z,9.711734
2022-10-03T08:11:40.914Z,9.711657
2022-10-03T08:12:39.537Z,9.711648
2022-10-03T08:13:39.589Z,9.711703
2022-10-03T08:14:39.519Z,9.711740
2022-10-03T08:15:39.549Z,9.711736
2022-10-03T08:16:39.513Z,9.711697
2022-10-03T08:17:39.556Z,9.711755
2022-10-03T08:18:39.496Z,9.711732
2022-10-03T08:19:39.483Z,9.711737
2022-10-03T08:20:39.482Z,9.711671
2022-10-03T08:21:39.819Z,9.711707
2022-10-03T08:22:39.459Z,9.711722
2022-10-03T08:23:39.467Z,9.711707
2022-10-03T08:24:39.454Z,9.711694
2022-10-03T08:25:39.461Z,9.711656
2022-10-03T08:26:39.457Z,9.711703
2022-10-03T08:27:39.425Z,9.711682
2022-10-03T08:28:39.415Z,9.711742
2022-10-03T08:29:39.407Z,9.711582
2022-10-03T08:30:39.396Z,9.711660
2022-10-03T08:31:39.739Z,9.711799
2022-10-03T08:32:39.417Z,9.711692
2022-10-03T08:33:39.386Z,9.711762
2022-10-03T08:34:39.399Z,9.712050
2022-10-03T08:35:39.371Z,9.711667
2022-10-03T08:36:39.365Z,9.711744
2022-10-03T08:37:39.348Z,9.711707
2022-10-03T08:38:39.358Z,9.711808
2022-10-03T08:39:39.344Z,9.711922
2022-10-03T08:40:39.351Z,9.711829
2022-10-03T08:41:39.571Z,9.711656
2022-10-03T08:42:40.167Z,9.711482
2022-10-03T08:43:39.311Z,9.711848
2022-10-03T08:44:39.286Z,9.711742
2022-10-03T08:45:39.280Z,9.711715
2022-10-03T08:46:39.343Z,9.711710
2022-10-03T08:47:39.263Z,9.711783
2022-10-03T08:48:39.268Z,9.711703
2022-10-03T08:49:39.264Z,9.711709
2022-10-03T08:50:39.259Z,9.711841
2022-10-03T08:51:40.625Z,9.711756
2022-10-03T08:52:39.223Z,9.711611
2022-10-03T08:53:39.276Z,9.711687
2022-10-03T08:54:39.211Z,9.711647
2022-10-03T08:55:39.206Z,9.711649
2022-10-03T08:56:39.187Z,9.711514
2022-10-03T08:57:39.189Z,9.711552
2022-10-03T08:58:39.183Z,9.711538
2022-10-03T08:59:39.185Z,9.711583
2022-10-03T09:00:39.178Z,9.711619
2022-10-03T09:01:39.509Z,9.711742
2022-10-03T09:02:39.226Z,9.711757
2022-10-03T09:03:43.198Z,9.711771
2022-10-03T09:04:40.159Z,9.711598
2022-10-03T09:05:39.126Z,9.711499
2022-10-03T09:06:52.749Z,9.711727
2022-10-03T09:07:41.160Z,9.711644
2022-10-03T09:08:39.093Z,9.711573
2022-10-03T09:09:39.096Z,9.711726
2022-10-03T09:10:39.079Z,9.711639
2022-10-03T09:11:40.142Z,9.711508
2022-10-03T09:12:39.426Z,9.711609
2022-10-03T09:13:39.075Z,9.711645
2022-10-03T09:14:39.074Z,9.711731
2022-10-03T09:15:39.144Z,9.711692
2022-10-03T09:16:39.384Z,9.711804
2022-10-03T09:17:39.043Z,9.712095
2022-10-03T09:18:39.027Z,9.711952
2022-10-03T09:19:39.038Z,9.711718
2022-10-03T09:20:39.010Z,9.711637
2022-10-03T09:21:39.004Z,9.711782
2022-10-03T09:22:39.030Z,9.711761
2022-10-03T09:23:38.996Z,9.711665
2022-10-03T09:24:38.973Z,9.711811
2022-10-03T09:25:40.299Z,9.712028
2022-10-03T09:26:40.104Z,9.711918
2022-10-03T09:27:39.952Z,9.712054
2022-10-03T09:28:40.247Z,9.711961
2022-10-03T09:29:39.671Z,9.712029
2022-10-03T09:30:38.960Z,9.712006
2022-10-03T09:31:39.356Z,9.711664
2022-10-03T09:32:38.908Z,9.711634
2022-10-03T09:33:38.933Z,9.711671
2022-10-03T09:34:38.939Z,9.711524
2022-10-03T09:35:39.185Z,9.711584
2022-10-03T09:36:38.879Z,9.711604
2022-10-03T09:37:39.699Z,9.711698
2022-10-03T09:38:38.998Z,9.711789
2022-10-03T09:39:38.945Z,9.711791
2022-10-03T09:40:39.753Z,9.712098
2022-10-03T09:41:39.170Z,9.711927
2022-10-03T09:42:39.742Z,9.711855
2022-10-03T09:43:38.911Z,9.711696
2022-10-03T09:44:38.832Z,9.711845
2022-10-03T09:45:38.865Z,9.711689
2022-10-03T09:46:41.886Z,9.711776
2022-10-03T09:47:39.796Z,9.711772
2022-10-03T09:48:38.801Z,9.711723
2022-10-03T09:49:38.794Z,9.711699
2022-10-03T09:50:38.807Z,9.711679
2022-10-03T09:51:39.214Z,9.711543
2022-10-03T09:52:38.777Z,9.711697
2022-10-03T09:53:38.749Z,9.711720
2022-10-03T09:54:38.850Z,9.711687
2022-10-03T09:55:38.743Z,9.711827
2022-10-03T09:56:39.033Z,9.711939
2022-10-03T09:57:38.717Z,9.711959
2022-10-03T09:58:38.762Z,9.711782
2022-10-03T09:59:38.737Z,9.711894
2022-10-03T10:00:38.779Z,9.711597
2022-10-03T10:01:38.945Z,9.711832
2022-10-03T10:02:38.677Z,9.711909
2022-10-03T10:03:40.243Z,9.711940
2022-10-03T10:04:54.363Z,9.711807
2022-10-03T10:05:40.666Z,9.711918
2022-10-03T10:06:38.928Z,9.711986
2022-10-03T10:07:40.160Z,9.711926
2022-10-03T10:08:39.200Z,9.711940
2022-10-03T10:09:38.640Z,9.712055
2022-10-03T10:10:38.665Z,9.712354
2022-10-03T10:11:39.177Z,9.712256
2022-10-03T10:12:38.668Z,9.712193
2022-10-03T10:14:03.211Z,9.711956
2022-10-03T10:14:40.585Z,9.711816
2022-10-03T10:15:38.622Z,9.711821
2022-10-03T10:16:39.069Z,9.712224
2022-10-03T10:17:38.693Z,9.712106
2022-10-03T10:18:38.557Z,9.711981
2022-10-03T10:19:38.567Z,9.711886
2022-10-03T10:20:38.654Z,9.711904
2022-10-03T10:21:38.566Z,9.711852
2022-10-03T10:22:38.533Z,9.711911
2022-10-03T10:23:38.553Z,9.711815
2022-10-03T10:24:38.513Z,9.711765
2022-10-03T10:25:38.524Z,9.711841
2022-10-03T10:26:38.491Z,9.711815
2022-10-03T10:27:38.489Z,9.711662
2022-10-03T10:28:38.499Z,9.711715
2022-10-03T10:29:38.459Z,9.711817
2022-10-03T10:30:38.459Z,9.711839
2022-10-03T10:31:38.556Z,9.711822
2022-10-03T10:32:38.451Z,9.711884
2022-10-03T10:33:38.486Z,9.711794
2022-10-03T10:34:38.437Z,9.711856
2022-10-03T10:35:38.417Z,9.711770
2022-10-03T10:36:38.773Z,9.711869
2022-10-03T10:37:41.596Z,9.711844
2022-10-03T10:38:39.398Z,9.711873
2022-10-03T10:39:38.395Z,9.711857
2022-10-03T10:40:38.382Z,9.711821
2022-10-03T10:41:38.715Z,9.711830
2022-10-03T10:42:38.368Z,9.711688
2022-10-03T10:43:38.366Z,9.711748
2022-10-03T10:44:38.372Z,9.711935
2022-10-03T10:45:38.343Z,9.711748
2022-10-03T10:46:38.689Z,9.711873
2022-10-03T10:47:38.325Z,9.711767
2022-10-03T10:48:38.331Z,9.711678
2022-10-03T10:49:38.326Z,9.711743
2022-10-03T10:50:40.125Z,9.711833
2022-10-03T10:51:38.294Z,9.711716
2022-10-03T10:52:39.309Z,9.711675
2022-10-03T10:53:38.283Z,9.711729
2022-10-03T10:54:38.280Z,9.711475
2022-10-03T10:55:40.773Z,9.711734
2022-10-03T10:56:38.629Z,9.711805
2022-10-03T10:57:38.248Z,9.711810
2022-10-03T10:58:38.244Z,9.711770
2022-10-03T10:59:38.231Z,9.711812
2022-10-03T11:00:38.323Z,9.711982
2022-10-03T11:01:39.443Z,9.711811
2022-10-03T11:02:38.210Z,9.711820
2022-10-03T11:03:38.226Z,9.711842
2022-10-03T11:04:38.244Z,9.711813
2022-10-03T11:05:38.243Z,9.711749
2022-10-03T11:06:38.612Z,9.711767
2022-10-03T11:07:38.174Z,9.711731
2022-10-03T11:08:38.159Z,9.711688
2022-10-03T11:09:38.162Z,9.711693
2022-10-03T11:10:39.735Z,9.711643
2022-10-03T11:11:38.136Z,9.711750
2022-10-03T11:12:38.169Z,9.711713
2022-10-03T11:13:38.670Z,9.711676
2022-10-03T11:14:38.130Z,9.711694
2022-10-03T11:15:38.701Z,9.711610
2022-10-03T11:16:38.551Z,9.711544
2022-10-03T11:17:38.107Z,9.711636
2022-10-03T11:18:38.097Z,9.711658
2022-10-03T11:19:38.075Z,9.711774
2022-10-03T11:20:38.086Z,9.711632
2022-10-03T11:21:38.072Z,9.711700
2022-10-03T11:22:38.044Z,9.711719
2022-10-03T11:23:38.040Z,9.711710
2022-10-03T11:24:38.051Z,9.711733
2022-10-03T11:25:38.034Z,9.711647
2022-10-03T11:26:38.450Z,9.711568
2022-10-03T11:27:38.002Z,9.711529
2022-10-03T11:28:38.079Z,9.711635
2022-10-03T11:29:38.004Z,9.711721
2022-10-03T11:30:38.019Z,9.711955
2022-10-03T11:31:38.091Z,9.711874
2022-10-03T11:32:37.984Z,9.711942
2022-10-03T11:33:37.963Z,9.712022
2022-10-03T11:34:37.950Z,9.711927
2022-10-03T11:35:42.238Z,9.711957
2022-10-03T11:36:40.291Z,9.711926
2022-10-03T11:37:37.927Z,9.711957
2022-10-03T11:38:37.936Z,9.711923
2022-10-03T11:39:37.914Z,9.711712
2022-10-03T11:40:37.902Z,9.711975
2022-10-03T11:41:37.890Z,9.712083
2022-10-03T11:42:37.892Z,9.712180
2022-10-03T11:43:37.882Z,9.712117
2022-10-03T11:44:37.866Z,9.711980
2022-10-03T11:45:37.931Z,9.711925
2022-10-03T11:46:38.311Z,9.712069
2022-10-03T11:47:37.879Z,9.712049
2022-10-03T11:48:37.852Z,9.712080